Cincinnati, Ohio
Traffic Map
Current Weather Conditions
Cincinnati, Ohio
Clear
Clear
15°
Feels Like: 15°
Wind Chill: 15° Ceiling: Unl
Heat Index: 15° Visibility: 10mi
Dew Point: Wind: 0mph
Humidity: 69% Direction: ° ()
Pressure: 30.12in Gusts: 0mph
Raw Report DataKLUK 210153Z 00000KT 10SM CLR 15/09 A3012 RMK AO2 SLP200 T01500094
Traffic Incident Summary
Active as of:
Severity:
Category:
InformationThere was an issue retrieving the traffic information for this location. Please try a different location or try again shortly.
Advertisements
At Last! Intellicast now available for iPhone and Android